Island City, Oregon
Current Conditions -  °F | °C
As of 8:15 PM on Tuesday 25 Nov 2014 (Local Time) from KLGD Reporting Station
Overcast Overcast  
Wind Chill: 54°   Ceiling: 4800
Heat Index: 54°   Visibility: 10mi
Dew Point: 43°   Wind: 8mph
Humidity: 67%   Direction: 40°NE
Pressure: 30.19"   Gusts: NA
Location:  45.2284°N, 118.272°W
Report Text: KLGD 260415Z AUTO 04007KT 10SM SCT041 OVC048 12/06 A3019 RMK AO1
Loading
Personal Weather Stations






























Interactive Weather Map New forecast layout! Learn more

10-Day Weather Forecast

Advertisements
Track Severe Weather on mobile